createdAt,value
2019-05-14T00:01:03.419Z,72.63
2019-05-14T00:03:33.348Z,72.58
2019-05-14T00:06:03.116Z,72.43
2019-05-14T00:08:32.727Z,72.43
2019-05-14T00:11:02.352Z,72.30
2019-05-14T00:13:32.308Z,72.11
2019-05-14T00:16:02.348Z,71.83
2019-05-14T00:18:32.531Z,71.60
2019-05-14T00:21:02.658Z,71.60
2019-05-14T00:23:32.272Z,71.52
2019-05-14T00:26:03.412Z,71.48
2019-05-14T00:28:33.865Z,71.40
2019-05-14T00:31:03.481Z,71.42
2019-05-14T00:33:33.107Z,71.19
2019-05-14T00:36:03.211Z,71.03
2019-05-14T00:38:33.399Z,70.74
2019-05-14T00:41:03.014Z,70.50
2019-05-14T00:43:33.048Z,70.22
2019-05-14T00:46:02.927Z,69.92
2019-05-14T00:48:32.606Z,69.70
2019-05-14T00:51:02.741Z,69.63
2019-05-14T00:53:32.829Z,69.27
2019-05-14T00:56:02.520Z,69.23
2019-05-14T00:58:33.616Z,69.01
2019-05-14T01:01:03.218Z,68.84
2019-05-14T01:03:32.865Z,68.66
2019-05-14T01:06:03.149Z,68.68
2019-05-14T01:08:32.935Z,68.69
2019-05-14T01:11:02.540Z,68.73
2019-05-14T01:13:32.180Z,68.60
2019-05-14T01:16:02.079Z,68.47
2019-05-14T01:18:32.408Z,68.32
2019-05-14T01:21:02.164Z,68.12
2019-05-14T01:23:32.393Z,67.86
2019-05-14T01:26:02.571Z,67.54
2019-05-14T01:28:32.428Z,67.48
2019-05-14T01:31:02.531Z,67.40
2019-05-14T01:33:32.618Z,67.31
2019-05-14T01:36:02.374Z,67.06
2019-05-14T01:38:32.367Z,66.89
2019-05-14T01:41:02.192Z,66.51
2019-05-14T01:43:31.858Z,66.42
2019-05-14T01:46:02.176Z,66.00
2019-05-14T01:48:31.854Z,65.38
2019-05-14T01:51:01.861Z,65.40
2019-05-14T01:53:31.684Z,65.16
2019-05-14T01:56:01.801Z,64.93
2019-05-14T01:58:31.699Z,65.04
2019-05-14T02:01:01.952Z,65.09
2019-05-14T02:03:32.449Z,65.17
2019-05-14T02:06:02.129Z,65.24
2019-05-14T02:08:32.405Z,65.44
2019-05-14T02:11:02.245Z,65.55
2019-05-14T02:13:32.424Z,65.62
2019-05-14T02:16:03.024Z,65.68
2019-05-14T02:18:33.521Z,65.83
2019-05-14T02:21:04.064Z,65.95
2019-05-14T02:23:33.826Z,66.04
2019-05-14T02:26:03.463Z,66.17
2019-05-14T02:28:33.150Z,66.22
2019-05-14T02:31:04.053Z,66.28
2019-05-14T02:33:33.855Z,66.35
2019-05-14T02:36:03.611Z,66.30
2019-05-14T02:38:33.268Z,66.31
2019-05-14T02:41:02.903Z,66.39
2019-05-14T02:43:32.558Z,66.52
2019-05-14T02:46:12.077Z,66.53
2019-05-14T02:48:33.567Z,66.77
2019-05-14T02:51:03.297Z,66.90
2019-05-14T02:53:32.973Z,66.87
2019-05-14T02:56:02.598Z,67.00
2019-05-14T02:58:32.263Z,67.07
2019-05-14T03:01:02.447Z,67.31
2019-05-14T03:03:32.234Z,67.33
2019-05-14T03:06:01.973Z,67.43
2019-05-14T03:08:31.864Z,67.46
2019-05-14T03:11:03.016Z,67.45
2019-05-14T03:13:35.827Z,67.60
2019-05-14T03:16:20.932Z,67.70
2019-05-14T03:18:39.612Z,67.76
2019-05-14T03:21:09.379Z,67.70
2019-05-14T03:23:39.886Z,67.71
2019-05-14T03:26:12.083Z,67.73
2019-05-14T03:28:41.832Z,67.75
2019-05-14T03:31:13.090Z,67.58
2019-05-14T03:33:45.056Z,67.50
2019-05-14T03:36:17.856Z,67.35
2019-05-14T03:38:49.967Z,67.22
2019-05-14T03:41:19.673Z,67.22
2019-05-14T03:43:49.828Z,67.08
2019-05-14T03:46:20.578Z,66.99
2019-05-14T03:48:50.444Z,67.02
2019-05-14T03:51:20.545Z,66.95
2019-05-14T03:54:01.107Z,66.73
2019-05-14T03:56:21.781Z,66.60
2019-05-14T03:58:51.925Z,66.42
2019-05-14T04:01:21.986Z,66.45
2019-05-14T04:03:51.940Z,66.37
2019-05-14T04:06:23.937Z,66.39
2019-05-14T04:08:54.294Z,66.29
2019-05-14T04:11:24.824Z,66.20
2019-05-14T04:14:00.202Z,66.17
2019-05-14T04:16:31.634Z,65.74
2019-05-14T04:19:02.618Z,65.51
2019-05-14T04:21:32.762Z,65.42
2019-05-14T04:24:09.763Z,65.32
2019-05-14T04:26:57.028Z,65.36
2019-05-14T04:29:14.860Z,65.19
2019-05-14T04:31:50.387Z,65.15
2019-05-14T04:34:19.637Z,64.98
2019-05-14T04:36:50.612Z,64.68
2019-05-14T04:39:20.346Z,64.48
2019-05-14T04:41:50.071Z,64.42
2019-05-14T04:44:20.376Z,64.59
2019-05-14T04:46:50.159Z,64.55
2019-05-14T04:49:20.200Z,64.06
2019-05-14T04:51:50.552Z,63.66
2019-05-14T04:54:20.347Z,63.56
2019-05-14T04:56:51.019Z,63.51
2019-05-14T04:59:20.822Z,63.79
2019-05-14T05:01:50.422Z,63.84
2019-05-14T05:04:20.600Z,63.36
2019-05-14T05:06:50.337Z,62.86
2019-05-14T05:09:20.291Z,62.46
2019-05-14T05:11:50.260Z,62.38
2019-05-14T05:14:23.810Z,62.73
2019-05-14T05:16:51.180Z,62.65
2019-05-14T05:19:20.887Z,62.59
2019-05-14T05:21:50.569Z,62.02
2019-05-14T05:24:20.183Z,61.77
2019-05-14T05:26:49.848Z,61.36
2019-05-14T05:29:19.498Z,61.24
2019-05-14T05:31:49.124Z,60.91
2019-05-14T05:34:19.655Z,60.94
2019-05-14T05:36:49.252Z,60.99
2019-05-14T05:39:19.075Z,60.77
2019-05-14T05:41:49.790Z,60.31
2019-05-14T05:44:19.422Z,60.28
2019-05-14T05:46:49.519Z,60.21
2019-05-14T05:49:19.250Z,59.83
2019-05-14T05:51:48.857Z,59.87
2019-05-14T05:54:18.706Z,59.91
2019-05-14T05:56:48.505Z,59.79
2019-05-14T05:59:19.117Z,59.07
2019-05-14T06:01:50.258Z,59.30
2019-05-14T06:04:20.430Z,59.58
2019-05-14T06:06:51.805Z,59.43
2019-05-14T06:09:21.435Z,58.95
2019-05-14T06:11:51.135Z,58.66
2019-05-14T06:14:21.128Z,58.74
2019-05-14T06:16:51.425Z,58.40
2019-05-14T06:19:21.489Z,58.76
2019-05-14T06:21:51.099Z,57.86
2019-05-14T06:24:21.098Z,58.16
2019-05-14T06:26:50.750Z,58.30
2019-05-14T06:29:20.635Z,58.46
2019-05-14T06:31:50.285Z,58.39
2019-05-14T06:34:19.940Z,58.08
2019-05-14T06:36:49.571Z,57.62
2019-05-14T06:39:19.258Z,57.92
2019-05-14T06:41:49.186Z,57.51
2019-05-14T06:44:18.948Z,56.77
2019-05-14T06:46:49.788Z,57.19
2019-05-14T06:49:19.902Z,57.32
2019-05-14T06:54:41.393Z,56.39
2019-05-14T06:57:11.510Z,56.79
2019-05-14T06:59:41.792Z,56.59
2019-05-14T07:02:11.501Z,56.20
2019-05-14T07:04:41.130Z,56.03
2019-05-14T07:07:11.421Z,55.98
2019-05-14T07:09:41.562Z,55.95
2019-05-14T07:12:11.184Z,55.99
2019-05-14T07:14:40.787Z,55.98
2019-05-14T07:17:10.621Z,55.73
2019-05-14T07:19:40.243Z,55.32
2019-05-14T07:22:09.983Z,54.40
2019-05-14T07:24:40.578Z,54.70
2019-05-14T07:27:10.520Z,54.37
2019-05-14T07:29:40.229Z,54.86
2019-05-14T07:32:09.891Z,54.59
2019-05-14T07:34:39.624Z,54.76
2019-05-14T07:37:09.910Z,54.13
2019-05-14T07:39:39.615Z,53.80
2019-05-14T07:42:09.953Z,54.08
2019-05-14T07:44:39.680Z,54.19
2019-05-14T07:50:35.426Z,54.06
2019-05-14T07:53:05.643Z,53.16
2019-05-14T07:55:38.428Z,52.98
2019-05-14T07:58:08.490Z,52.66
2019-05-14T08:00:40.199Z,53.19
2019-05-14T08:03:09.667Z,52.53
2019-05-14T08:05:39.517Z,52.31
2019-05-14T08:08:09.516Z,52.47
2019-05-14T08:10:39.318Z,52.09
2019-05-14T08:13:09.016Z,52.44
2019-05-14T08:15:41.619Z,52.46
2019-05-14T08:18:11.772Z,52.86
2019-05-14T08:20:42.416Z,52.86
2019-05-14T08:23:12.065Z,52.32
2019-05-14T08:25:41.705Z,51.31
2019-05-14T08:28:11.405Z,51.67
2019-05-14T08:30:41.145Z,51.38
2019-05-14T08:33:12.424Z,50.82
2019-05-14T08:35:42.106Z,50.92
2019-05-14T08:38:12.327Z,51.34
2019-05-14T08:40:42.117Z,50.36
2019-05-14T08:43:11.839Z,50.61
2019-05-14T08:45:41.591Z,50.83
2019-05-14T08:48:11.233Z,50.08
2019-05-14T08:50:40.926Z,50.25
2019-05-14T08:53:10.632Z,49.94
2019-05-14T08:55:40.282Z,50.64
2019-05-14T08:58:13.767Z,50.71
2019-05-14T09:00:41.327Z,50.46
2019-05-14T09:03:10.959Z,50.03
2019-05-14T09:05:40.903Z,50.07
2019-05-14T09:08:10.998Z,49.51
2019-05-14T09:10:40.653Z,49.32
2019-05-14T09:13:10.383Z,49.48
2019-05-14T09:15:39.952Z,49.51
2019-05-14T09:18:11.753Z,49.78
2019-05-14T09:20:41.155Z,49.86
2019-05-14T09:23:10.883Z,49.96
2019-05-14T09:25:47.501Z,49.46
2019-05-14T09:28:11.950Z,49.80
2019-05-14T09:30:41.635Z,50.07
2019-05-14T09:33:11.276Z,49.78
2019-05-14T09:35:40.950Z,49.85
2019-05-14T09:38:10.627Z,50.05
2019-05-14T09:40:40.254Z,49.75
2019-05-14T09:43:09.958Z,49.38
2019-05-14T09:45:39.645Z,49.51
2019-05-14T09:48:09.503Z,49.43
2019-05-14T09:50:40.739Z,48.82
2019-05-14T09:53:10.428Z,48.65
2019-05-14T09:55:40.058Z,48.40
2019-05-14T09:58:09.733Z,48.66
2019-05-14T10:00:39.384Z,47.82
2019-05-14T10:03:09.772Z,48.72
2019-05-14T10:05:39.669Z,48.74
2019-05-14T10:08:09.293Z,49.80
2019-05-14T10:10:39.888Z,49.57
2019-05-14T10:13:10.074Z,49.72
2019-05-14T10:15:39.808Z,49.27
2019-05-14T10:18:11.606Z,48.17
2019-05-14T10:20:45.550Z,47.66
2019-05-14T10:23:12.166Z,47.20
2019-05-14T10:25:42.549Z,47.05
2019-05-14T10:28:12.390Z,47.37
2019-05-14T10:30:42.291Z,48.16
2019-05-14T10:33:14.884Z,47.72
2019-05-14T10:35:44.411Z,47.26
2019-05-14T10:38:14.028Z,46.82
2019-05-14T10:40:43.699Z,47.10
2019-05-14T10:43:13.660Z,46.63
2019-05-14T10:45:43.279Z,45.94
2019-05-14T10:48:12.908Z,45.40
2019-05-14T10:50:56.229Z,45.73
2019-05-14T10:53:14.226Z,46.20
2019-05-14T10:55:43.928Z,46.07
2019-05-14T10:58:13.849Z,46.15
2019-05-14T11:00:43.752Z,45.77
2019-05-14T11:03:13.392Z,45.89
2019-05-14T11:05:43.127Z,45.38
2019-05-14T11:08:12.753Z,46.02
2019-05-14T11:10:42.797Z,45.68
2019-05-14T11:13:12.512Z,45.44
2019-05-14T11:15:42.205Z,45.99
2019-05-14T11:18:12.498Z,45.68
2019-05-14T11:20:42.499Z,45.84
2019-05-14T11:23:12.249Z,45.50
2019-05-14T11:25:41.860Z,45.68
2019-05-14T11:28:12.008Z,45.80
2019-05-14T11:30:41.679Z,46.30
2019-05-14T11:33:11.329Z,46.24
2019-05-14T11:35:40.980Z,46.27
2019-05-14T11:38:27.507Z,45.94
2019-05-14T11:40:41.994Z,45.92
2019-05-14T11:43:11.715Z,46.39
2019-05-14T11:45:41.338Z,46.43
2019-05-14T11:48:11.029Z,45.60
2019-05-14T11:50:40.770Z,45.63
2019-05-14T11:53:10.634Z,45.62
2019-05-14T11:55:40.727Z,45.21
2019-05-14T11:58:10.662Z,45.11
2019-05-14T12:00:41.343Z,45.51
2019-05-14T12:03:11.279Z,44.84
2019-05-14T12:05:41.198Z,45.23
2019-05-14T12:08:10.913Z,45.41
2019-05-14T12:10:40.646Z,44.58
2019-05-14T12:13:10.535Z,44.48
2019-05-14T12:15:40.250Z,43.72
2019-05-14T12:18:10.525Z,43.14
2019-05-14T12:20:40.353Z,41.90
2019-05-14T12:23:10.096Z,41.35
2019-05-14T12:25:39.795Z,40.05
2019-05-14T12:28:13.555Z,39.40
2019-05-14T12:30:40.849Z,37.98
2019-05-14T12:33:10.628Z,36.40
2019-05-14T12:35:40.530Z,34.75
2019-05-14T12:38:10.859Z,34.74
2019-05-14T12:40:40.533Z,33.77
2019-05-14T12:43:10.308Z,33.40
2019-05-14T12:45:40.007Z,33.10
2019-05-14T12:48:09.638Z,32.45
2019-05-14T12:50:39.534Z,32.13
2019-05-14T12:53:09.183Z,31.73
2019-05-14T12:55:40.269Z,31.41
2019-05-14T12:58:10.233Z,31.43
2019-05-14T13:00:40.026Z,31.49
2019-05-14T13:03:09.851Z,31.38
2019-05-14T13:05:39.689Z,31.30
2019-05-14T13:08:11.500Z,30.72
2019-05-14T13:10:41.267Z,30.83
2019-05-14T13:13:11.055Z,30.60
2019-05-14T13:15:42.391Z,30.58
2019-05-14T13:18:12.039Z,30.75
2019-05-14T13:20:41.760Z,30.58
2019-05-14T13:23:12.138Z,30.74
2019-05-14T13:25:41.848Z,30.73
2019-05-14T13:28:11.625Z,30.84
2019-05-14T13:30:41.353Z,30.15
2019-05-14T13:33:11.140Z,30.21
2019-05-14T13:35:42.470Z,30.65
2019-05-14T13:38:14.501Z,30.91
2019-05-14T13:40:43.586Z,30.25
2019-05-14T13:43:14.451Z,30.61
2019-05-14T13:45:45.583Z,30.59
2019-05-14T13:48:15.280Z,30.57
2019-05-14T13:50:49.066Z,30.80
2019-05-14T13:53:18.848Z,31.09
2019-05-14T13:55:57.209Z,31.09
2019-05-14T13:58:21.086Z,30.78
2019-05-14T14:00:52.470Z,31.01
2019-05-14T14:03:22.229Z,31.12
2019-05-14T14:05:52.127Z,31.51
2019-05-14T14:08:21.758Z,31.77
2019-05-14T14:10:53.625Z,31.84
2019-05-14T14:13:23.001Z,32.23
2019-05-14T14:15:52.631Z,31.52
2019-05-14T14:18:22.254Z,31.67
2019-05-14T14:20:51.954Z,32.23
2019-05-14T14:23:27.258Z,32.36
2019-05-14T14:25:55.837Z,32.48
2019-05-14T14:28:25.760Z,32.76
2019-05-14T14:30:55.396Z,33.28
2019-05-14T14:33:25.282Z,33.07
2019-05-14T14:35:54.922Z,33.14
2019-05-14T14:38:24.547Z,33.28
2019-05-14T14:40:54.440Z,33.27
2019-05-14T14:43:24.349Z,33.11
2019-05-14T14:45:53.968Z,33.50
2019-05-14T14:48:23.757Z,33.08
2019-05-14T14:50:53.503Z,33.41
2019-05-14T14:53:41.674Z,33.40
2019-05-14T14:56:00.087Z,33.05
2019-05-14T14:58:28.699Z,32.93
2019-05-14T15:00:59.514Z,33.05
2019-05-14T15:03:29.691Z,33.20
2019-05-14T15:06:02.274Z,33.53
2019-05-14T15:08:31.963Z,33.75
2019-05-14T15:11:03.164Z,33.19
2019-05-14T15:13:33.410Z,33.22
2019-05-14T15:16:04.582Z,33.23
2019-05-14T15:18:34.309Z,33.05
2019-05-14T15:21:04.230Z,32.90
2019-05-14T15:23:33.851Z,32.83
2019-05-14T15:26:03.954Z,32.75
2019-05-14T15:28:34.245Z,32.97
2019-05-14T15:31:04.319Z,32.88
2019-05-14T15:33:34.544Z,33.37
2019-05-14T15:36:04.667Z,32.80
2019-05-14T15:38:34.413Z,33.17
2019-05-14T15:41:04.097Z,33.10
2019-05-14T15:43:33.724Z,32.25
2019-05-14T15:46:03.991Z,32.46
2019-05-14T15:48:33.688Z,32.63
2019-05-14T15:51:03.313Z,32.65
2019-05-14T15:53:32.946Z,32.18
2019-05-14T15:56:02.614Z,32.67
2019-05-14T15:58:35.297Z,32.21
2019-05-14T16:01:05.966Z,31.62
2019-05-14T16:03:36.733Z,32.08
2019-05-14T16:06:08.979Z,31.52
2019-05-14T16:08:40.254Z,31.51
2019-05-14T16:11:11.537Z,31.63
2019-05-14T16:13:41.446Z,31.75
2019-05-14T16:16:11.578Z,31.87
2019-05-14T16:18:41.976Z,32.09
2019-05-14T16:21:11.723Z,32.43
2019-05-14T16:23:42.869Z,32.91
2019-05-14T16:26:13.215Z,32.91
2019-05-14T16:28:45.176Z,33.41
2019-05-14T16:31:14.946Z,33.38
2019-05-14T16:33:49.094Z,33.72
2019-05-14T16:36:18.466Z,34.11
2019-05-14T16:38:48.457Z,34.05
2019-05-14T16:41:19.118Z,34.61
2019-05-14T16:43:49.650Z,35.14
2019-05-14T16:46:19.632Z,35.92
2019-05-14T16:48:49.319Z,36.29
2019-05-14T16:51:20.241Z,36.87
2019-05-14T16:53:52.014Z,37.38
2019-05-14T16:56:21.757Z,36.97
2019-05-14T16:58:51.394Z,37.29
2019-05-14T17:01:22.591Z,37.62
2019-05-14T17:03:52.348Z,38.20
2019-05-14T17:06:22.030Z,38.17
2019-05-14T17:08:51.665Z,38.33
2019-05-14T17:11:21.393Z,38.90
2019-05-14T17:13:51.007Z,39.26
2019-05-14T17:16:20.925Z,39.76
2019-05-14T17:18:50.632Z,40.02
2019-05-14T17:21:20.256Z,40.32
2019-05-14T17:23:49.882Z,40.69
2019-05-14T17:26:19.700Z,41.17
2019-05-14T17:28:49.351Z,41.29
2019-05-14T17:31:19.355Z,41.47
2019-05-14T17:33:49.459Z,41.60
2019-05-14T17:36:19.190Z,41.38
2019-05-14T17:38:49.322Z,41.57
2019-05-14T17:41:19.685Z,41.73
2019-05-14T17:43:49.829Z,41.85
2019-05-14T17:46:19.581Z,42.22
2019-05-14T17:48:49.250Z,42.70
2019-05-14T17:51:19.170Z,43.03
2019-05-14T17:53:48.793Z,43.22
2019-05-14T17:56:19.224Z,43.32
2019-05-14T17:58:49.829Z,43.57
2019-05-14T18:01:19.529Z,43.64
2019-05-14T18:03:49.382Z,43.78
2019-05-14T18:06:20.029Z,43.90
2019-05-14T18:08:49.866Z,44.24
2019-05-14T18:11:20.326Z,44.49
2019-05-14T18:13:49.949Z,44.62
2019-05-14T18:16:20.175Z,44.82
2019-05-14T18:18:49.869Z,44.93
2019-05-14T18:21:19.571Z,45.30
2019-05-14T18:23:49.503Z,45.49
2019-05-14T18:26:19.264Z,45.96
2019-05-14T18:28:48.966Z,46.25
2019-05-14T18:31:20.689Z,46.29
2019-05-14T18:33:50.310Z,46.24
2019-05-14T18:36:22.658Z,46.27
2019-05-14T18:38:52.282Z,46.33
2019-05-14T18:41:22.081Z,46.49
2019-05-14T18:43:51.712Z,46.73
2019-05-14T18:46:21.353Z,46.90
2019-05-14T18:48:51.040Z,47.19
2019-05-14T18:51:20.679Z,47.40
2019-05-14T18:53:50.314Z,47.97
2019-05-14T18:56:24.172Z,47.49
2019-05-14T18:58:51.555Z,47.45
2019-05-14T19:01:21.192Z,47.46
2019-05-14T19:03:50.890Z,47.71
2019-05-14T19:06:20.615Z,47.83
2019-05-14T19:08:51.136Z,47.72
2019-05-14T19:11:21.084Z,47.57
2019-05-14T19:13:50.725Z,47.70
2019-05-14T19:16:20.480Z,47.67
2019-05-14T19:18:50.203Z,47.74
2019-05-14T19:21:20.214Z,47.83
2019-05-14T19:23:49.913Z,47.85
2019-05-14T19:26:33.064Z,48.02
2019-05-14T19:28:51.197Z,48.12
2019-05-14T19:31:21.988Z,48.21
2019-05-14T19:33:51.792Z,48.20
2019-05-14T19:36:21.644Z,48.15
2019-05-14T19:38:52.830Z,48.20
2019-05-14T19:41:23.150Z,48.28
2019-05-14T19:43:52.927Z,48.30
2019-05-14T19:46:22.741Z,48.34
2019-05-14T19:48:52.632Z,48.36
2019-05-14T19:51:22.089Z,48.37
2019-05-14T19:53:52.549Z,48.37
2019-05-14T19:56:23.390Z,48.38
2019-05-14T19:58:53.772Z,48.50
2019-05-14T20:01:28.742Z,48.51
2019-05-14T20:03:59.019Z,48.57
2019-05-14T20:06:29.609Z,48.66
2019-05-14T20:09:00.017Z,48.69
2019-05-14T20:11:29.671Z,48.78
2019-05-14T20:13:59.290Z,48.93
2019-05-14T20:16:29.360Z,49.04
2019-05-14T20:19:02.080Z,49.06
2019-05-14T20:21:32.056Z,49.19
2019-05-14T20:24:01.920Z,49.30
2019-05-14T20:26:31.621Z,49.37
2019-05-14T20:29:01.317Z,49.38
2019-05-14T20:31:32.038Z,49.42
2019-05-14T20:34:01.667Z,49.56
2019-05-14T20:36:31.362Z,49.62
2019-05-14T20:39:01.027Z,49.69
2019-05-14T20:41:30.718Z,49.83
2019-05-14T20:44:00.623Z,49.93
2019-05-14T20:46:30.296Z,50.05
2019-05-14T20:48:59.911Z,50.14
2019-05-14T20:51:30.404Z,50.30
2019-05-14T20:54:00.231Z,50.54
2019-05-14T20:56:29.852Z,50.76
2019-05-14T20:58:59.543Z,50.99
2019-05-14T21:01:29.322Z,51.17
2019-05-14T21:03:59.368Z,51.37
2019-05-14T21:06:29.094Z,51.44
2019-05-14T21:08:59.325Z,51.62
2019-05-14T21:11:29.758Z,51.80
2019-05-14T21:13:59.380Z,51.83
2019-05-14T21:16:29.070Z,51.75
2019-05-14T21:18:59.302Z,51.80
2019-05-14T21:21:28.991Z,51.96
2019-05-14T21:23:58.842Z,51.89
2019-05-14T21:26:29.244Z,51.87
2019-05-14T21:28:59.124Z,51.86
2019-05-14T21:31:28.878Z,51.80
2019-05-14T21:33:58.798Z,51.84
2019-05-14T21:36:28.568Z,51.88
2019-05-14T21:38:58.713Z,51.92
2019-05-14T21:41:29.045Z,51.78
2019-05-14T21:44:01.395Z,51.69
2019-05-14T21:46:31.776Z,51.68
2019-05-14T21:49:01.686Z,51.66
2019-05-14T21:51:31.582Z,51.72
2019-05-14T21:54:01.243Z,51.88
2019-05-14T21:56:30.879Z,51.94
2019-05-14T21:59:01.358Z,52.05
2019-05-14T22:01:31.276Z,52.13
2019-05-14T22:04:00.968Z,52.36
2019-05-14T22:06:30.710Z,52.42
2019-05-14T22:09:00.354Z,52.57
2019-05-14T22:11:30.814Z,52.62
2019-05-14T22:14:00.580Z,52.62
2019-05-14T22:16:30.234Z,52.71
2019-05-14T22:18:59.861Z,52.89
2019-05-14T22:21:29.486Z,52.97
2019-05-14T22:23:59.164Z,53.10
2019-05-14T22:26:28.851Z,53.23
2019-05-14T22:28:58.738Z,53.42
2019-05-14T22:31:29.035Z,53.80
2019-05-14T22:33:58.836Z,53.90
2019-05-14T22:36:29.497Z,54.10
2019-05-14T22:38:59.297Z,54.29
2019-05-14T22:41:29.584Z,54.39
2019-05-14T22:43:59.993Z,54.50
2019-05-14T22:46:31.077Z,54.53
2019-05-14T22:49:00.670Z,54.64
2019-05-14T22:51:33.106Z,54.60
2019-05-14T22:54:01.666Z,54.59
2019-05-14T22:56:31.287Z,54.58
2019-05-14T22:59:01.082Z,54.59
2019-05-14T23:01:30.768Z,54.74
2019-05-14T23:04:00.386Z,54.81
2019-05-14T23:06:30.677Z,54.90
2019-05-14T23:09:00.597Z,54.95
2019-05-14T23:11:30.223Z,55.01
2019-05-14T23:13:59.967Z,55.21
2019-05-14T23:16:36.985Z,55.38
2019-05-14T23:19:01.781Z,55.58
2019-05-14T23:21:32.037Z,55.67
2019-05-14T23:24:01.818Z,55.67
2019-05-14T23:26:31.440Z,55.75
2019-05-14T23:29:01.978Z,55.90
2019-05-14T23:31:32.337Z,56.02
2019-05-14T23:34:01.960Z,56.11
2019-05-14T23:36:31.820Z,56.24
2019-05-14T23:39:01.474Z,56.36
2019-05-14T23:41:31.169Z,56.36
2019-05-14T23:44:00.793Z,56.26
2019-05-14T23:46:30.489Z,56.10
2019-05-14T23:49:01.003Z,56.05
2019-05-14T23:51:30.642Z,56.21
2019-05-14T23:54:00.713Z,56.26
2019-05-14T23:56:30.335Z,56.25
2019-05-14T23:59:02.091Z,56.31
